Terminal Aerodrome Forecast
Issued by NWS Wilmington, OH

Home | Current Version | Previous Version | Text Only | Print | Product List | Glossary On
Versions: 1 2 3 4 5 6 7 8 9 10 11 12 13 14 15 16
000
FTUS41 KILN 271100 RRA
TAFDAY
TAF
KDAY 271141Z 2712/2812 19012KT P6SM OVC060
      TEMPO 2712/2714 -SHRA OVC040
     FM271900 20013KT P6SM OVC025
      TEMPO 2800/2802 5SM -SHRA OVC015
     FM280200 25009KT P6SM VCSH OVC018
      TEMPO 2805/2809 5SM -SHRA OVC009=

USA.gov is the U.S. government's official web portal to all federal, state and local government web resources and services.